MET'MAP v2.0
soon released !

Expected late october,
this new version will be
more efficient, smarter,
and hosted on a brand new
server x3 powerfull...
...and still free !


Not compatible ?
Try the mobile version !

LOG IN : | Subscribe | Disclaimer | Who is Orbifly ? |
ICAO code :
Legend : VFR Marginal VFR IFR Intensive IFR Very Intensive IFR
Visi :
Ceiling :
>= 8 km
>= 3000ft
5 to 8 km
1000 to 3000 ft
1500m to 5 km
500 to 1000 ft
800 to 1500m
200 to 500 ft
< 800m
< 200 ft

METAR - EKSB Sonderborg - 30 Mar 2020 11:41 UTC - Data Source NOAA   


- Airport Elevation : 24 ft
- IATA code : SGD
- No reported NOTAMs.


EKSB - Sonderborg

Latest METAR recorded : 2015/08/11 07:51 EKSB 110751Z 13003KT 9999 SCT015 20/16 Q1017
TAF TAF EKSB
Valid from the 30 at 09:00 until the 30 at 13:00 UTC


300854Z 3009/3013 01012KT 9999 SCT025

Source NOAA


MET'MAP, your aeronautical weather chart ! - Copyright ORBIFLY December 2007

Programming & Development : Alexandra Zaïnal
Co-Developer : Marc-Olivier Méhu
Technical & hardware support : Manuel Goepfert
Concept & Financing : Baudouin d'Aumeries